Time;durP1;ratioP1;P1;durP2;ratioP2;P2;SDS_P1;SDS_P2;PMS_P1;PMS_P2;Temp;Humidity;BMP_temperature;BMP_pressure;BME280_temperature;BME280_humidity;BME280_pressure;Samples;Min_cycle;Max_cycle;Signal;HPM_P1;HPM_P2
2024/03/06 00:00:49;;;;;;;31.10;23.27;;;5.70;99.90;;;;;;5111300;28;20399;-74
2024/03/06 00:03:14;;;;;;;31.20;24.60;;;5.70;99.90;;;;;;5110944;28;20012;-74
2024/03/06 00:05:40;;;;;;;33.63;23.47;;;5.70;99.90;;;;;;5111021;28;20479;-73
2024/03/06 00:08:06;;;;;;;31.30;23.57;;;5.70;99.90;;;;;;5111287;28;20028;-74
2024/03/06 00:10:31;;;;;;;30.03;23.37;;;5.60;99.90;;;;;;5111170;28;20374;-74
2024/03/06 00:12:57;;;;;;;28.60;22.60;;;5.60;99.90;;;;;;5110697;28;20099;-73
2024/03/06 00:15:23;;;;;;;32.03;23.97;;;5.60;99.90;;;;;;5110359;28;20368;-73
2024/03/06 00:17:49;;;;;;;33.43;24.77;;;5.60;99.90;;;;;;5110860;28;20027;-73
2024/03/06 00:20:14;;;;;;;31.63;24.57;;;5.60;99.90;;;;;;5111620;28;20302;-74
2024/03/06 00:22:40;;;;;;;30.43;22.57;;;5.60;99.90;;;;;;5110610;28;20408;-74
2024/03/06 00:25:06;;;;;;;28.50;22.27;;;5.60;99.90;;;;;;5110140;28;20035;-74
2024/03/06 00:27:31;;;;;;;31.80;22.97;;;5.60;99.90;;;;;;5110910;28;20019;-74
2024/03/06 00:29:57;;;;;;;29.33;23.20;;;5.60;99.90;;;;;;5101695;28;20382;-74
2024/03/06 00:32:23;;;;;;;31.90;24.43;;;5.60;99.90;;;;;;5111327;28;20027;-74
2024/03/06 00:34:49;;;;;;;29.90;23.10;;;5.60;99.90;;;;;;5110486;28;20020;-74
2024/03/06 00:37:14;;;;;;;30.57;23.57;;;5.50;99.90;;;;;;5110936;28;20479;-74
2024/03/06 00:39:40;;;;;;;30.67;24.17;;;5.50;99.90;;;;;;5110819;28;20030;-73
2024/03/06 00:42:05;;;;;;;33.93;25.83;;;5.60;99.90;;;;;;5111329;28;20042;-73
2024/03/06 00:44:31;;;;;;;36.97;24.93;;;5.50;99.90;;;;;;5110236;28;20019;-73
2024/03/06 00:46:56;;;;;;;32.23;23.83;;;5.50;99.90;;;;;;5109984;28;20091;-73
2024/03/06 00:49:22;;;;;;;31.87;23.60;;;5.50;99.90;;;;;;5110709;28;20054;-73
2024/03/06 00:51:48;;;;;;;31.27;23.47;;;5.50;99.90;;;;;;5110898;28;20140;-74
2024/03/06 00:54:13;;;;;;;29.47;24.00;;;5.50;99.90;;;;;;5110019;28;20023;-73
2024/03/06 00:56:39;;;;;;;35.43;25.13;;;5.50;99.90;;;;;;5110666;28;20144;-74
2024/03/06 00:59:05;;;;;;;35.67;24.90;;;5.50;99.90;;;;;;5110182;28;20031;-73
2024/03/06 01:01:31;;;;;;;35.60;25.87;;;5.50;99.90;;;;;;5110497;28;20105;-73
2024/03/06 01:03:56;;;;;;;33.07;25.13;;;5.50;99.90;;;;;;5110169;28;20128;-73
2024/03/06 01:06:22;;;;;;;32.07;23.77;;;5.50;99.90;;;;;;5110581;28;20077;-73
2024/03/06 01:08:47;;;;;;;33.57;24.87;;;5.50;99.90;;;;;;5110762;28;20092;-73
2024/03/06 01:11:14;;;;;;;32.47;26.00;;;5.50;99.90;;;;;;5110689;28;20027;-74
2024/03/06 01:13:40;;;;;;;32.77;24.17;;;5.50;99.90;;;;;;5110105;28;20488;-73
2024/03/06 01:16:06;;;;;;;30.13;24.33;;;5.50;99.90;;;;;;5110196;28;20077;-74
2024/03/06 01:18:31;;;;;;;32.20;24.73;;;5.50;99.90;;;;;;5110468;28;20012;-73
2024/03/06 01:20:57;;;;;;;31.17;23.87;;;5.50;99.90;;;;;;5110746;28;20027;-73
2024/03/06 01:23:22;;;;;;;28.83;22.73;;;5.50;99.90;;;;;;5109833;28;20022;-73
2024/03/06 01:25:48;;;;;;;35.00;25.13;;;5.50;99.90;;;;;;5109688;28;20034;-74
2024/03/06 01:28:13;;;;;;;30.47;24.00;;;5.50;99.90;;;;;;5110085;28;20047;-73
2024/03/06 01:30:39;;;;;;;31.57;23.90;;;5.50;99.90;;;;;;5110166;28;20537;-74
2024/03/06 01:33:05;;;;;;;29.40;23.07;;;5.50;99.90;;;;;;5111038;28;20058;-74
2024/03/06 01:35:30;;;;;;;31.70;24.07;;;5.50;99.90;;;;;;5111396;28;20020;-73
2024/03/06 01:37:56;;;;;;;32.23;24.63;;;5.40;99.90;;;;;;5113360;27;20028;-74
2024/03/06 01:40:21;;;;;;;35.47;25.13;;;5.40;99.90;;;;;;5117935;27;20024;-73
2024/03/06 01:42:51;;;;;;;30.20;22.83;;;5.40;99.90;;;;;;5113845;27;20024;-73
2024/03/06 01:45:16;;;;;;;33.13;24.03;;;5.40;99.90;;;;;;5113366;28;20023;-74
2024/03/06 01:47:42;;;;;;;31.07;23.13;;;5.40;99.90;;;;;;5113782;27;20035;-74
2024/03/06 01:50:09;;;;;;;28.10;22.53;;;5.40;99.90;;;;;;5113607;27;20023;-73
2024/03/06 01:52:36;;;;;;;30.77;22.50;;;5.40;99.90;;;;;;5113671;27;20032;-73
2024/03/06 01:55:02;;;;;;;28.73;21.70;;;5.50;99.90;;;;;;5113355;27;20026;-73
2024/03/06 01:57:28;;;;;;;30.83;22.30;;;5.40;99.90;;;;;;5113921;28;20491;-73
2024/03/06 01:59:54;;;;;;;29.77;22.07;;;5.40;99.90;;;;;;5113610;28;20030;-74
2024/03/06 02:02:20;;;;;;;32.03;23.63;;;5.40;99.90;;;;;;5113321;27;20024;-73
2024/03/06 02:04:46;;;;;;;32.53;22.83;;;5.40;99.90;;;;;;5113687;28;20024;-73
2024/03/06 02:07:14;;;;;;;31.80;22.80;;;5.40;99.90;;;;;;5113382;28;20111;-73
2024/03/06 02:09:39;;;;;;;33.50;23.67;;;5.40;99.90;;;;;;5113175;27;20493;-74
2024/03/06 02:12:08;;;;;;;32.30;24.20;;;5.40;99.90;;;;;;5113186;27;20016;-73
2024/03/06 02:14:35;;;;;;;33.70;22.93;;;5.40;99.90;;;;;;5112678;27;20084;-74
2024/03/06 02:17:00;;;;;;;31.50;23.20;;;5.40;99.90;;;;;;5110193;28;20487;-74
2024/03/06 02:19:38;;;;;;;32.27;23.90;;;5.40;99.90;;;;;;5112337;28;20028;-73
2024/03/06 02:22:04;;;;;;;32.70;23.40;;;5.40;99.90;;;;;;5111460;27;20024;-73
2024/03/06 02:24:29;;;;;;;33.23;23.10;;;5.40;99.90;;;;;;5110677;28;20742;-74
2024/03/06 02:26:56;;;;;;;32.63;23.50;;;5.40;99.90;;;;;;5112321;27;20015;-73
2024/03/06 02:29:23;;;;;;;34.90;24.20;;;5.40;99.90;;;;;;5111691;28;20011;-73
2024/03/06 02:31:49;;;;;;;34.30;23.73;;;5.50;99.90;;;;;;5113121;27;20026;-73
2024/03/06 02:34:14;;;;;;;36.03;24.67;;;5.50;99.90;;;;;;5111580;28;20024;-73
2024/03/06 02:36:40;;;;;;;38.83;25.77;;;5.50;99.90;;;;;;5112213;28;20042;-73
2024/03/06 02:39:08;;;;;;;38.90;26.23;;;5.40;99.90;;;;;;5113365;27;20437;-73
2024/03/06 02:41:36;;;;;;;37.23;25.13;;;5.50;99.90;;;;;;5116165;27;20379;-74
2024/03/06 02:44:01;;;;;;;36.57;25.30;;;5.50;99.90;;;;;;5111011;28;20035;-73
2024/03/06 02:46:27;;;;;;;42.33;27.40;;;5.50;99.90;;;;;;5112519;28;20031;-73
2024/03/06 02:48:52;;;;;;;41.80;27.80;;;5.50;99.90;;;;;;5111465;27;20475;-73
2024/03/06 02:51:19;;;;;;;42.27;27.07;;;5.50;99.90;;;;;;5111473;27;20400;-73
2024/03/06 02:53:45;;;;;;;42.40;27.43;;;5.40;99.90;;;;;;5111256;28;20053;-73
2024/03/06 02:56:16;;;;;;;42.27;28.37;;;5.50;99.90;;;;;;5111203;28;20019;-74
2024/03/06 02:58:42;;;;;;;50.47;29.37;;;5.50;99.90;;;;;;5112318;28;20077;-74
2024/03/06 03:01:09;;;;;;;46.33;28.50;;;5.40;99.90;;;;;;5111930;28;20422;-73
2024/03/06 03:03:34;;;;;;;50.37;29.93;;;5.50;99.90;;;;;;5110777;28;20015;-73
2024/03/06 03:06:00;;;;;;;45.87;28.60;;;5.40;99.90;;;;;;5110000;27;20064;-73
2024/03/06 03:08:26;;;;;;;52.37;30.87;;;5.50;99.90;;;;;;5111079;28;20027;-73
2024/03/06 03:10:51;;;;;;;51.07;30.10;;;5.40;99.90;;;;;;5111308;28;20016;-74
2024/03/06 03:13:17;;;;;;;51.50;31.13;;;5.40;99.90;;;;;;5112568;28;20023;-73
2024/03/06 03:15:42;;;;;;;50.17;30.40;;;5.50;99.90;;;;;;5110354;28;20026;-74
2024/03/06 03:18:08;;;;;;;50.90;30.30;;;5.50;99.90;;;;;;5110902;28;20024;-74
2024/03/06 03:20:34;;;;;;;54.53;31.03;;;5.50;99.90;;;;;;5110518;28;20032;-73
2024/03/06 03:23:01;;;;;;;52.47;30.37;;;5.50;99.90;;;;;;5110909;27;20082;-73
2024/03/06 03:25:27;;;;;;;57.03;32.07;;;5.50;99.90;;;;;;5110179;28;20019;-74
2024/03/06 03:27:52;;;;;;;57.73;31.57;;;5.40;99.90;;;;;;5111034;28;20399;-73
2024/03/06 03:30:21;;;;;;;62.00;33.40;;;5.50;99.90;;;;;;5110786;28;20032;-73
2024/03/06 03:32:47;;;;;;;62.17;33.07;;;5.40;99.90;;;;;;5111390;28;20026;-73
2024/03/06 03:35:13;;;;;;;55.93;31.47;;;5.40;99.90;;;;;;5109824;28;20112;-74
2024/03/06 03:37:38;;;;;;;60.83;32.67;;;5.40;99.90;;;;;;5110342;28;20066;-74
2024/03/06 03:40:06;;;;;;;59.00;32.73;;;5.40;99.90;;;;;;5109559;27;20605;-74
2024/03/06 03:42:32;;;;;;;55.93;32.57;;;5.40;99.90;;;;;;5114840;27;20046;-74
2024/03/06 03:44:58;;;;;;;56.73;31.50;;;5.40;99.90;;;;;;5110308;27;20540;-74
2024/03/06 03:47:23;;;;;;;54.20;32.40;;;5.40;99.90;;;;;;5110553;27;20028;-74
2024/03/06 03:49:49;;;;;;;60.53;33.70;;;5.40;99.90;;;;;;5111844;27;20024;-73
2024/03/06 03:52:15;;;;;;;59.53;32.37;;;5.40;99.90;;;;;;5114877;27;20027;-74
2024/03/06 03:54:41;;;;;;;61.47;33.00;;;5.40;99.90;;;;;;5115818;27;20547;-74
2024/03/06 03:57:08;;;;;;;58.73;32.20;;;5.40;99.90;;;;;;5116506;27;20111;-74
2024/03/06 03:59:33;;;;;;;63.33;33.97;;;5.40;99.90;;;;;;5113770;27;20031;-74
2024/03/06 04:01:59;;;;;;;62.23;32.17;;;5.40;99.90;;;;;;5109378;28;20036;-73
2024/03/06 04:04:25;;;;;;;58.50;33.33;;;5.40;99.90;;;;;;5109332;27;20085;-73
2024/03/06 04:06:50;;;;;;;62.23;32.70;;;5.40;99.90;;;;;;5110030;28;20020;-73
2024/03/06 04:09:16;;;;;;;64.37;34.10;;;5.40;99.90;;;;;;5111619;28;20096;-73
2024/03/06 04:11:41;;;;;;;61.70;32.53;;;5.40;99.90;;;;;;5115540;27;20022;-73
2024/03/06 04:14:09;;;;;;;67.97;34.27;;;5.40;99.90;;;;;;5116786;27;20023;-73
2024/03/06 04:16:34;;;;;;;67.70;34.30;;;5.40;99.90;;;;;;5109631;27;20031;-73
2024/03/06 04:19:00;;;;;;;62.33;33.53;;;5.40;99.90;;;;;;5110651;27;20100;-74
2024/03/06 04:21:26;;;;;;;67.40;34.63;;;5.40;99.90;;;;;;5114213;28;20541;-73
2024/03/06 04:23:51;;;;;;;64.53;32.83;;;5.40;99.90;;;;;;5109227;28;20024;-73
2024/03/06 04:26:17;;;;;;;67.90;34.07;;;5.40;99.90;;;;;;5123158;28;20540;-73
2024/03/06 04:28:43;;;;;;;65.83;34.03;;;5.40;99.90;;;;;;5110203;28;20676;-74
2024/03/06 04:31:09;;;;;;;58.77;32.63;;;5.40;99.90;;;;;;5112435;28;20030;-73
2024/03/06 04:33:35;;;;;;;63.40;34.00;;;5.40;99.90;;;;;;5107254;28;20380;-73
2024/03/06 04:36:05;;;;;;;58.70;32.53;;;5.40;99.90;;;;;;5113447;28;20019;-74
2024/03/06 04:38:31;;;;;;;59.60;33.10;;;5.40;99.90;;;;;;5109566;28;20027;-73
2024/03/06 04:40:56;;;;;;;59.73;31.83;;;5.40;99.90;;;;;;5113397;28;20153;-73
2024/03/06 04:43:22;;;;;;;61.33;33.40;;;5.40;99.90;;;;;;5109343;28;20043;-74
2024/03/06 04:45:47;;;;;;;58.80;30.80;;;5.40;99.90;;;;;;5112332;28;20043;-74
2024/03/06 04:48:13;;;;;;;59.03;32.03;;;5.40;99.90;;;;;;5116895;28;20065;-74
2024/03/06 04:50:38;;;;;;;56.43;31.33;;;5.40;99.90;;;;;;5118159;28;21092;-74
2024/03/06 04:53:04;;;;;;;57.13;29.90;;;5.40;99.90;;;;;;5117583;28;20027;-74
2024/03/06 04:55:30;;;;;;;55.07;31.00;;;5.40;99.90;;;;;;5116765;28;20102;-73
2024/03/06 04:57:56;;;;;;;59.47;30.67;;;5.50;99.90;;;;;;5106561;28;20027;-73
2024/03/06 05:00:22;;;;;;;54.87;28.90;;;5.40;99.90;;;;;;5112673;27;20174;-74
2024/03/06 05:02:49;;;;;;;56.60;30.97;;;5.50;99.90;;;;;;5115439;28;20354;-73
2024/03/06 05:05:14;;;;;;;57.47;30.17;;;5.40;99.90;;;;;;5111871;27;20034;-74
2024/03/06 05:07:40;;;;;;;58.17;31.73;;;5.40;99.90;;;;;;5111848;28;20023;-74
2024/03/06 05:10:07;;;;;;;53.73;30.77;;;5.50;99.90;;;;;;5112857;27;20038;-73
2024/03/06 05:12:34;;;;;;;56.77;30.23;;;5.50;99.90;;;;;;5119220;27;20012;-74
2024/03/06 05:15:00;;;;;;;61.90;31.43;;;5.50;99.90;;;;;;5117133;27;20399;-73
2024/03/06 05:17:25;;;;;;;60.30;30.87;;;5.50;99.90;;;;;;5112702;27;20084;-73
2024/03/06 05:19:51;;;;;;;58.70;31.43;;;5.40;99.90;;;;;;5115635;27;20027;-74
2024/03/06 05:22:17;;;;;;;56.17;31.17;;;5.50;99.90;;;;;;5115386;27;20027;-73
2024/03/06 05:24:43;;;;;;;66.87;34.83;;;5.50;99.90;;;;;;5118662;27;20038;-73
2024/03/06 05:27:09;;;;;;;59.07;32.00;;;5.50;99.90;;;;;;5111450;27;20027;-73
2024/03/06 05:29:36;;;;;;;58.30;31.80;;;5.50;99.90;;;;;;5110068;27;21704;-73
2024/03/06 05:32:03;;;;;;;64.17;34.33;;;5.50;99.90;;;;;;5113722;27;20019;-73
2024/03/06 05:34:29;;;;;;;76.33;43.10;;;5.50;99.90;;;;;;5110632;28;20495;-73
2024/03/06 05:36:55;;;;;;;74.13;38.80;;;5.50;99.90;;;;;;5108862;27;20061;-74
2024/03/06 05:39:21;;;;;;;63.07;35.57;;;5.50;99.90;;;;;;5108009;27;20023;-74
2024/03/06 05:41:46;;;;;;;61.80;36.10;;;5.50;99.90;;;;;;5112784;27;20023;-73
2024/03/06 05:44:12;;;;;;;54.30;30.10;;;5.50;99.90;;;;;;5108968;27;20031;-74
2024/03/06 05:46:38;;;;;;;55.67;31.83;;;5.50;99.90;;;;;;5112170;27;20019;-73
2024/03/06 05:49:04;;;;;;;57.80;31.90;;;5.50;99.90;;;;;;5112289;27;20480;-72
2024/03/06 05:51:30;;;;;;;53.57;29.90;;;5.60;99.90;;;;;;5112032;27;20548;-73
2024/03/06 05:53:56;;;;;;;48.93;29.00;;;5.50;99.90;;;;;;5110141;27;20019;-73
2024/03/06 05:56:21;;;;;;;68.10;43.43;;;5.50;99.90;;;;;;5110080;28;20015;-73
2024/03/06 05:58:49;;;;;;;52.23;33.03;;;5.60;99.90;;;;;;5110005;27;20031;-73
2024/03/06 06:01:18;;;;;;;62.00;33.70;;;5.60;99.90;;;;;;5110567;28;20472;-73
2024/03/06 06:03:44;;;;;;;59.47;33.33;;;5.60;99.90;;;;;;5112048;28;20057;-73
2024/03/06 06:06:09;;;;;;;61.80;34.17;;;5.60;99.90;;;;;;5110122;28;20024;-72
2024/03/06 06:08:35;;;;;;;48.13;26.90;;;5.50;99.90;;;;;;5107560;27;20019;-72
2024/03/06 06:11:03;;;;;;;63.43;36.93;;;5.60;99.90;;;;;;5107825;27;20030;-67
2024/03/06 06:13:28;;;;;;;60.20;35.37;;;5.60;99.90;;;;;;5106807;27;20023;-70
2024/03/06 06:15:54;;;;;;;60.97;34.60;;;5.60;99.90;;;;;;5107280;28;20046;-67
2024/03/06 06:18:20;;;;;;;57.03;31.37;;;5.60;99.90;;;;;;5109434;27;20035;-68
2024/03/06 06:20:46;;;;;;;56.60;31.93;;;5.60;99.90;;;;;;5108532;27;20027;-78
2024/03/06 06:23:12;;;;;;;56.27;29.80;;;5.60;99.90;;;;;;5113918;27;20024;-78
2024/03/06 06:25:37;;;;;;;53.87;29.63;;;5.60;99.90;;;;;;5104754;27;20083;-78
2024/03/06 06:28:03;;;;;;;50.50;28.63;;;5.60;99.90;;;;;;5109386;27;20023;-78
2024/03/06 06:30:29;;;;;;;51.40;27.83;;;5.60;99.90;;;;;;5110821;27;20019;-80
2024/03/06 06:32:54;;;;;;;52.20;29.83;;;5.50;99.90;;;;;;5115232;27;20466;-78
2024/03/06 06:35:20;;;;;;;53.07;29.57;;;5.60;99.90;;;;;;5117601;27;20036;-76
2024/03/06 06:37:46;;;;;;;52.67;28.80;;;5.60;99.90;;;;;;5119086;27;20011;-75
2024/03/06 06:40:12;;;;;;;70.73;40.40;;;5.60;99.90;;;;;;5118087;27;20042;-75
2024/03/06 06:42:43;;;;;;;56.60;36.83;;;5.60;99.90;;;;;;5108692;27;20409;-75
2024/03/06 06:45:09;;;;;;;53.70;29.47;;;5.60;99.90;;;;;;5112905;27;20023;-75
2024/03/06 06:47:35;;;;;;;51.47;28.67;;;5.60;99.90;;;;;;5122374;27;20089;-75
2024/03/06 06:50:01;;;;;;;47.93;25.93;;;5.60;99.90;;;;;;5113119;27;20011;-74
2024/03/06 06:52:31;;;;;;;36.07;20.90;;;5.60;99.90;;;;;;5111307;27;20015;-77
2024/03/06 06:54:56;;;;;;;24.00;15.67;;;5.60;99.90;;;;;;5112535;27;20110;-78
2024/03/06 06:57:22;;;;;;;22.87;15.50;;;5.60;99.90;;;;;;5113601;27;20106;-77
2024/03/06 06:59:47;;;;;;;22.27;15.13;;;5.60;99.90;;;;;;5121681;27;20035;-77
2024/03/06 07:02:13;;;;;;;26.47;15.70;;;5.60;99.90;;;;;;5115971;27;20388;-75
2024/03/06 07:04:38;;;;;;;23.27;15.40;;;5.60;99.90;;;;;;5116862;27;20023;-75
2024/03/06 07:07:04;;;;;;;24.03;15.37;;;5.60;99.90;;;;;;5117721;27;20605;-81
2024/03/06 07:09:30;;;;;;;24.17;15.77;;;5.60;99.90;;;;;;5121807;27;20083;-79
2024/03/06 07:11:56;;;;;;;27.07;16.33;;;5.60;99.90;;;;;;5118651;27;20044;-79
2024/03/06 07:14:21;;;;;;;28.20;16.73;;;5.60;99.90;;;;;;5115825;27;20115;-74
2024/03/06 07:16:47;;;;;;;24.83;16.37;;;5.60;99.90;;;;;;5116909;27;20028;-74
2024/03/06 07:19:12;;;;;;;23.60;16.17;;;5.70;99.90;;;;;;5116378;27;20015;-77
2024/03/06 07:21:39;;;;;;;20.07;13.20;;;5.70;99.90;;;;;;5118991;27;20061;-80
2024/03/06 07:24:04;;;;;;;17.67;12.73;;;5.70;99.90;;;;;;5129759;27;20462;-79
2024/03/06 07:26:32;;;;;;;18.20;12.07;;;5.60;99.90;;;;;;5114168;27;20023;-77
2024/03/06 07:28:58;;;;;;;16.60;11.50;;;5.60;99.90;;;;;;5112296;27;20083;-77
2024/03/06 07:31:24;;;;;;;17.93;10.83;;;5.50;99.90;;;;;;5120473;27;20182;-78
2024/03/06 07:33:50;;;;;;;16.37;10.90;;;5.50;99.90;;;;;;5112325;27;20037;-78
2024/03/06 07:36:16;;;;;;;17.27;11.90;;;5.50;99.90;;;;;;5120374;27;20023;-78
2024/03/06 07:38:42;;;;;;;16.23;11.80;;;5.50;99.90;;;;;;5119773;27;20089;-77
2024/03/06 07:41:08;;;;;;;16.80;11.93;;;5.40;99.90;;;;;;5110457;27;20113;-77
2024/03/06 07:43:33;;;;;;;14.70;10.77;;;5.40;99.90;;;;;;5112890;27;20019;-77
2024/03/06 07:45:59;;;;;;;15.03;10.87;;;5.40;99.90;;;;;;5110965;27;20042;-77
2024/03/06 07:48:25;;;;;;;16.10;11.57;;;5.40;99.90;;;;;;5113180;27;20043;-77
2024/03/06 07:50:51;;;;;;;16.00;11.00;;;5.40;99.90;;;;;;5119094;27;20062;-78
2024/03/06 07:53:17;;;;;;;15.57;9.80;;;5.30;99.90;;;;;;5115606;27;20047;-77
2024/03/06 07:55:42;;;;;;;16.40;10.97;;;5.30;99.90;;;;;;5117486;27;20880;-78
2024/03/06 07:58:09;;;;;;;16.13;11.73;;;5.30;99.90;;;;;;5117229;27;20036;-77
2024/03/06 08:00:36;;;;;;;13.53;9.93;;;5.30;99.90;;;;;;5124551;27;20602;-77
2024/03/06 08:03:01;;;;;;;17.03;10.90;;;5.30;99.90;;;;;;5112707;27;20107;-78
2024/03/06 08:05:28;;;;;;;15.70;11.00;;;5.30;99.90;;;;;;5116205;27;20058;-78
2024/03/06 08:07:54;;;;;;;15.47;10.63;;;5.30;99.90;;;;;;5117451;27;20027;-77
2024/03/06 08:10:19;;;;;;;14.80;9.90;;;5.30;99.90;;;;;;5115896;27;20031;-78
2024/03/06 08:12:48;;;;;;;10.90;9.00;;;5.30;99.90;;;;;;5113710;27;20031;-77
2024/03/06 08:15:14;;;;;;;11.00;8.73;;;5.30;99.90;;;;;;5104848;27;20027;-77
2024/03/06 08:17:41;;;;;;;11.43;8.73;;;5.30;99.90;;;;;;5111226;27;20023;-77
2024/03/06 08:20:11;;;;;;;11.40;9.03;;;5.30;99.90;;;;;;5114032;27;20059;-77
2024/03/06 08:22:39;;;;;;;10.87;8.77;;;5.30;99.90;;;;;;5111047;28;20027;-77
2024/03/06 08:25:08;;;;;;;11.80;9.13;;;5.30;99.90;;;;;;5116115;27;20031;-77
2024/03/06 08:27:35;;;;;;;11.97;8.37;;;5.20;99.90;;;;;;5114485;28;20048;-77
2024/03/06 08:30:04;;;;;;;9.70;7.77;;;5.20;99.90;;;;;;5110143;28;20023;-77
2024/03/06 08:32:30;;;;;;;10.80;8.27;;;5.20;99.90;;;;;;5109345;28;20023;-76
2024/03/06 08:34:55;;;;;;;13.07;8.87;;;5.20;99.90;;;;;;5108892;28;20491;-77
2024/03/06 08:37:21;;;;;;;11.93;8.13;;;5.20;99.90;;;;;;5112716;28;20022;-77
2024/03/06 08:39:48;;;;;;;12.87;8.60;;;5.20;99.90;;;;;;5113499;27;20038;-77
2024/03/06 08:42:16;;;;;;;9.70;7.70;;;5.20;99.90;;;;;;5104963;28;20020;-77
2024/03/06 08:44:42;;;;;;;12.37;8.27;;;5.20;99.90;;;;;;5113829;27;20602;-76
2024/03/06 08:47:07;;;;;;;10.53;7.00;;;5.20;99.90;;;;;;5119519;27;20106;-77
2024/03/06 08:49:33;;;;;;;11.07;8.07;;;5.20;99.90;;;;;;5118537;27;20073;-77
2024/03/06 08:51:59;;;;;;;11.67;7.77;;;5.20;99.90;;;;;;5119108;27;20038;-77
2024/03/06 08:54:24;;;;;;;10.80;7.97;;;5.20;99.90;;;;;;5117473;27;20023;-77
2024/03/06 08:56:53;;;;;;;10.23;8.03;;;5.10;99.90;;;;;;5118742;27;20056;-77
2024/03/06 08:59:18;;;;;;;9.90;7.40;;;5.10;99.90;;;;;;5118104;27;20106;-76
2024/03/06 09:01:44;;;;;;;11.90;7.60;;;5.10;99.90;;;;;;5116742;27;20484;-76
2024/03/06 09:04:10;;;;;;;9.43;7.63;;;5.10;99.90;;;;;;5114646;27;20443;-76
2024/03/06 09:06:35;;;;;;;9.93;7.47;;;5.20;99.90;;;;;;5117690;27;20114;-77
2024/03/06 09:09:01;;;;;;;10.83;8.60;;;5.30;99.90;;;;;;5113931;27;20042;-77
2024/03/06 09:11:26;;;;;;;12.10;8.57;;;5.30;99.90;;;;;;5115710;27;20063;-77
2024/03/06 09:13:52;;;;;;;12.57;8.33;;;5.30;99.90;;;;;;5114765;27;20019;-76
2024/03/06 09:16:18;;;;;;;12.57;8.87;;;5.30;99.90;;;;;;5115048;27;20415;-77
2024/03/06 09:18:43;;;;;;;11.27;8.20;;;5.30;99.90;;;;;;5114827;27;20024;-77
2024/03/06 09:21:09;;;;;;;12.17;8.70;;;5.40;99.90;;;;;;5112064;27;20031;-77
2024/03/06 09:23:34;;;;;;;11.70;8.50;;;5.40;99.90;;;;;;5114736;27;20012;-77
2024/03/06 09:26:00;;;;;;;12.07;8.87;;;5.50;99.90;;;;;;5120577;27;20041;-76
2024/03/06 09:28:25;;;;;;;11.50;8.83;;;5.50;99.90;;;;;;5122001;27;20091;-77
2024/03/06 09:30:51;;;;;;;14.00;8.77;;;5.60;99.90;;;;;;5118559;27;20019;-77
2024/03/06 09:33:16;;;;;;;11.90;9.03;;;5.60;99.90;;;;;;5114204;27;20019;-76
2024/03/06 09:35:45;;;;;;;13.63;9.77;;;5.70;99.90;;;;;;5112042;27;20043;-77
2024/03/06 09:38:13;;;;;;;12.63;9.20;;;5.70;99.90;;;;;;5115545;27;20889;-77
2024/03/06 09:40:40;;;;;;;14.00;8.80;;;5.80;99.90;;;;;;5113745;27;20024;-76
2024/03/06 09:43:07;;;;;;;11.83;8.83;;;5.80;99.90;;;;;;5115374;27;20027;-77
2024/03/06 09:45:33;;;;;;;10.57;8.30;;;5.80;99.90;;;;;;5113292;27;20027;-76
2024/03/06 09:47:59;;;;;;;11.47;7.93;;;5.80;99.90;;;;;;5119851;27;20015;-77
2024/03/06 09:50:26;;;;;;;10.80;7.53;;;5.80;99.90;;;;;;5123414;27;20028;-76
2024/03/06 09:52:55;;;;;;;11.13;7.03;;;5.80;99.90;;;;;;5116971;27;20020;-77
2024/03/06 09:55:21;;;;;;;10.30;7.50;;;5.70;99.90;;;;;;5109559;27;20050;-77
2024/03/06 09:57:48;;;;;;;11.03;6.87;;;5.60;99.90;;;;;;5113306;27;20044;-76
2024/03/06 10:00:14;;;;;;;9.97;6.83;;;5.60;99.90;;;;;;5116885;27;20024;-77
2024/03/06 10:02:52;;;;;;;10.07;7.67;;;5.50;99.90;;;;;;5113203;27;20050;-76
2024/03/06 10:05:24;;;;;;;11.50;8.03;;;5.50;99.90;;;;;;5114027;27;20023;-76
2024/03/06 10:07:53;;;;;;;12.50;7.23;;;5.60;99.90;;;;;;5118976;27;20028;-77
2024/03/06 10:10:20;;;;;;;9.63;6.50;;;5.60;99.90;;;;;;5114079;27;20019;-77
2024/03/06 10:12:47;;;;;;;8.90;6.53;;;5.60;99.90;;;;;;5114537;27;20019;-76
2024/03/06 10:15:13;;;;;;;9.83;7.13;;;5.60;99.90;;;;;;5113653;27;20030;-76
2024/03/06 10:17:39;;;;;;;8.77;6.80;;;5.70;99.90;;;;;;5119664;27;20020;-75
2024/03/06 10:20:24;;;;;;;10.40;7.73;;;5.80;99.90;;;;;;5120169;27;20093;-75
2024/03/06 10:22:51;;;;;;;12.07;6.38;;;5.90;99.90;;;;;;5117447;27;20024;-76
2024/03/06 10:25:23;;;;;;;9.57;6.60;;;6.00;99.90;;;;;;5101659;27;20054;-76
2024/03/06 10:28:10;;;;;;;8.87;6.33;;;6.10;99.90;;;;;;5097210;27;20024;-75
2024/03/06 10:30:37;;;;;;;10.03;7.30;;;6.20;99.90;;;;;;5113530;27;20027;-76
2024/03/06 10:33:05;;;;;;;11.77;7.00;;;6.20;99.90;;;;;;5113657;27;20538;-75
2024/03/06 10:35:31;;;;;;;10.27;7.47;;;6.30;99.90;;;;;;5120090;27;20053;-76
2024/03/06 10:38:02;;;;;;;9.53;7.00;;;6.30;99.90;;;;;;5119506;27;20020;-76
2024/03/06 10:40:31;;;;;;;10.40;7.33;;;6.40;99.90;;;;;;5119355;27;20478;-76
2024/03/06 10:42:58;;;;;;;11.70;8.30;;;6.40;99.90;;;;;;5109185;27;20430;-75
2024/03/06 10:45:45;;;;;;;12.03;9.07;;;6.40;99.90;;;;;;5115501;27;20020;-76
2024/03/06 10:48:13;;;;;;;13.23;9.23;;;6.40;99.90;;;;;;5115190;27;20106;-75
2024/03/06 10:50:43;;;;;;;13.93;9.97;;;6.50;99.90;;;;;;5109656;27;20104;-76
2024/03/06 10:53:10;;;;;;;14.23;10.10;;;6.60;99.90;;;;;;5111526;28;20031;-76
2024/03/06 10:55:36;;;;;;;12.97;9.40;;;6.60;99.90;;;;;;5110274;28;20110;-75
2024/03/06 10:58:05;;;;;;;15.33;9.50;;;6.60;99.90;;;;;;5110184;28;20028;-75
2024/03/06 11:00:30;;;;;;;14.00;9.90;;;6.60;99.90;;;;;;5107394;27;20059;-74
2024/03/06 11:02:58;;;;;;;14.83;10.07;;;6.70;99.90;;;;;;5110362;28;20043;-75
2024/03/06 11:05:24;;;;;;;14.37;10.10;;;6.70;99.90;;;;;;5111369;28;20488;-75
2024/03/06 11:07:50;;;;;;;14.57;10.47;;;6.80;99.90;;;;;;5111323;28;20051;-75
2024/03/06 11:10:32;;;;;;;13.57;9.73;;;6.80;99.90;;;;;;5110625;27;20047;-76
2024/03/06 11:12:58;;;;;;;11.90;8.50;;;6.80;99.90;;;;;;5109956;28;20058;-76
2024/03/06 11:15:24;;;;;;;12.47;8.07;;;6.90;99.90;;;;;;5108608;28;20035;-76
2024/03/06 11:17:50;;;;;;;10.57;7.43;;;6.80;99.90;;;;;;5110275;27;20108;-75
2024/03/06 11:20:19;;;;;;;9.93;6.97;;;6.70;99.90;;;;;;5110774;28;20499;-76
2024/03/06 11:22:57;;;;;;;7.40;5.70;;;6.70;99.90;;;;;;5111173;28;20109;-76
2024/03/06 11:25:47;;;;;;;8.83;6.77;;;6.60;99.90;;;;;;5110711;28;20023;-74
2024/03/06 11:28:23;;;;;;;10.97;6.80;;;6.60;99.90;;;;;;5110949;28;20577;-74
2024/03/06 11:31:11;;;;;;;9.03;6.70;;;6.60;99.90;;;;;;5101594;28;20039;-74
2024/03/06 11:33:41;;;;;;;9.83;6.30;;;6.60;99.90;;;;;;5109790;28;20058;-74
2024/03/06 11:36:19;;;;;;;8.80;6.87;;;6.60;99.90;;;;;;5109328;28;20019;-75
2024/03/06 11:39:04;;;;;;;9.60;6.20;;;6.50;99.90;;;;;;5109547;28;20135;-74
2024/03/06 11:41:32;;;;;;;8.10;6.30;;;6.50;99.90;;;;;;5109673;28;20031;-75
2024/03/06 11:44:01;;;;;;;9.20;6.67;;;6.40;99.90;;;;;;5109729;28;20472;-76
2024/03/06 11:46:45;;;;;;;8.40;6.43;;;6.40;99.90;;;;;;5108740;28;20384;-74
2024/03/06 11:49:33;;;;;;;9.07;5.97;;;6.30;99.90;;;;;;5108941;28;20073;-75
2024/03/06 11:52:02;;;;;;;9.23;6.87;;;6.30;99.90;;;;;;5109630;27;20024;-74
2024/03/06 11:54:29;;;;;;;10.67;6.80;;;6.30;99.90;;;;;;5108848;28;20032;-74
2024/03/06 11:56:56;;;;;;;10.13;6.47;;;6.20;99.90;;;;;;5109923;28;20361;-74
2024/03/06 11:59:26;;;;;;;9.30;6.43;;;6.20;99.90;;;;;;5109534;28;20024;-74
2024/03/06 12:01:54;;;;;;;10.80;6.97;;;6.20;99.90;;;;;;5106275;28;20043;-74
2024/03/06 12:04:20;;;;;;;10.00;7.30;;;6.20;99.90;;;;;;5108818;28;20039;-74
2024/03/06 12:06:46;;;;;;;9.60;7.83;;;6.20;99.90;;;;;;5109370;28;20629;-75
2024/03/06 12:09:12;;;;;;;11.57;7.13;;;6.20;99.90;;;;;;5110197;27;20027;-74
2024/03/06 12:11:38;;;;;;;10.43;6.37;;;6.10;99.90;;;;;;5113718;27;20015;-74
2024/03/06 12:14:04;;;;;;;9.63;6.93;;;6.10;99.90;;;;;;5112438;27;20027;-74
2024/03/06 12:16:29;;;;;;;11.77;6.73;;;6.10;99.90;;;;;;5116893;27;20023;-74
2024/03/06 12:18:58;;;;;;;12.97;6.77;;;6.10;99.90;;;;;;5115442;27;20107;-74
2024/03/06 12:21:34;;;;;;;9.13;6.40;;;6.00;99.90;;;;;;5112478;27;20190;-74
2024/03/06 12:24:09;;;;;;;12.60;6.87;;;6.00;99.90;;;;;;5112619;27;20038;-74
2024/03/06 12:26:36;;;;;;;9.20;6.27;;;6.00;99.90;;;;;;5110873;28;20030;-75
2024/03/06 12:29:06;;;;;;;8.17;6.40;;;6.00;99.90;;;;;;5111183;28;20023;-74
2024/03/06 12:31:33;;;;;;;8.90;6.50;;;6.00;99.90;;;;;;5110640;28;20027;-75
2024/03/06 12:33:59;;;;;;;8.17;6.40;;;6.00;99.90;;;;;;5112941;28;20031;-74
2024/03/06 12:36:29;;;;;;;11.13;6.57;;;6.00;99.90;;;;;;5111659;28;20411;-74
2024/03/06 12:38:55;;;;;;;11.70;7.50;;;6.00;99.90;;;;;;5117083;27;20506;-74